createdAt,value
2019-02-23T00:02:02.854Z,61.95
2019-02-23T00:07:28.075Z,61.86
2019-02-23T00:12:52.468Z,60.76
2019-02-23T00:18:16.295Z,60.72
2019-02-23T00:23:40.185Z,61.01
2019-02-23T00:29:04.922Z,60.50
2019-02-23T00:34:29.641Z,60.26
2019-02-23T00:39:54.087Z,60.13
2019-02-23T00:45:18.544Z,61.01
2019-02-23T00:50:43.106Z,61.08
2019-02-23T00:56:06.675Z,61.06
2019-02-23T01:01:32.402Z,61.47
2019-02-23T01:06:56.283Z,61.84
2019-02-23T01:12:20.879Z,61.72
2019-02-23T01:17:44.807Z,61.37
2019-02-23T01:23:09.166Z,61.21
2019-02-23T01:28:33.819Z,61.26
2019-02-23T01:33:58.442Z,61.11
2019-02-23T01:39:23.433Z,61.55
2019-02-23T01:44:47.164Z,61.70
2019-02-23T01:50:12.230Z,61.68
2019-02-23T01:55:35.839Z,62.09
2019-02-23T02:01:00.550Z,62.70
2019-02-23T02:06:24.339Z,62.80
2019-02-23T02:11:49.045Z,63.98
2019-02-23T02:17:13.564Z,64.48
2019-02-23T02:22:38.273Z,64.99
2019-02-23T02:28:02.085Z,65.79
2019-02-23T02:33:26.736Z,66.29
2019-02-23T02:38:51.175Z,67.17
2019-02-23T02:44:16.303Z,67.30
2019-02-23T02:49:41.024Z,67.47
2019-02-23T02:55:06.128Z,67.70
2019-02-23T03:00:31.063Z,68.06
2019-02-23T03:05:55.055Z,68.40
2019-02-23T03:11:18.979Z,68.93
2019-02-23T03:16:43.669Z,69.22
2019-02-23T03:22:08.098Z,69.81
2019-02-23T03:27:32.051Z,69.83
2019-02-23T03:32:56.119Z,70.09
2019-02-23T03:38:19.977Z,70.50
2019-02-23T03:43:44.801Z,70.74
2019-02-23T03:49:09.646Z,71.26
2019-02-23T03:54:34.755Z,71.21
2019-02-23T03:59:59.994Z,70.76
2019-02-23T04:05:24.962Z,70.89
2019-02-23T04:10:49.470Z,70.30
2019-02-23T04:16:13.836Z,70.01
2019-02-23T04:21:38.850Z,69.44
2019-02-23T04:27:03.035Z,69.08
2019-02-23T04:32:27.756Z,68.38
2019-02-23T04:37:52.226Z,69.08
2019-02-23T04:43:17.260Z,69.38
2019-02-23T04:48:41.887Z,70.09
2019-02-23T04:54:05.757Z,69.52
2019-02-23T04:59:30.384Z,69.95
2019-02-23T05:04:54.809Z,70.44
2019-02-23T05:10:19.614Z,71.10
2019-02-23T05:15:44.493Z,71.65
2019-02-23T05:21:09.185Z,71.81
2019-02-23T05:26:33.212Z,72.55
2019-02-23T05:31:58.348Z,72.40
2019-02-23T05:37:22.211Z,72.26
2019-02-23T05:42:46.087Z,72.60
2019-02-23T05:48:10.866Z,72.28
2019-02-23T05:53:34.557Z,72.60
2019-02-23T05:58:59.016Z,72.95
2019-02-23T06:04:23.733Z,74.13
2019-02-23T06:09:48.456Z,74.92
2019-02-23T06:15:13.411Z,75.27
2019-02-23T06:20:37.682Z,74.66
2019-02-23T06:26:02.402Z,74.16
2019-02-23T06:31:26.678Z,74.52
2019-02-23T06:36:50.891Z,74.33
2019-02-23T06:42:15.878Z,73.25
2019-02-23T06:47:40.312Z,72.67
2019-02-23T06:53:04.810Z,71.53
2019-02-23T06:58:29.466Z,70.60
2019-02-23T07:03:53.363Z,69.16
2019-02-23T07:09:17.021Z,67.45
2019-02-23T07:14:41.662Z,65.59
2019-02-23T07:20:06.644Z,64.90
2019-02-23T07:25:30.995Z,63.65
2019-02-23T07:30:55.549Z,62.89
2019-02-23T07:36:20.763Z,63.57
2019-02-23T07:41:45.594Z,63.04
2019-02-23T07:47:09.541Z,60.66
2019-02-23T07:52:33.600Z,59.03
2019-02-23T07:57:58.385Z,58.81
2019-02-23T08:03:22.844Z,59.72
2019-02-23T08:08:47.680Z,58.76
2019-02-23T08:14:11.551Z,57.45
2019-02-23T08:19:35.806Z,58.38
2019-02-23T08:24:59.636Z,57.48
2019-02-23T08:30:23.461Z,57.26
2019-02-23T08:35:47.443Z,55.75
2019-02-23T08:41:11.771Z,53.81
2019-02-23T08:46:35.631Z,51.34
2019-02-23T08:51:59.895Z,48.87
2019-02-23T08:57:24.515Z,49.15
2019-02-23T09:02:48.943Z,46.93
2019-02-23T09:08:12.655Z,47.82
2019-02-23T09:13:36.691Z,45.21
2019-02-23T09:19:01.380Z,42.80
2019-02-23T09:24:26.011Z,42.50
2019-02-23T09:29:50.431Z,40.58
2019-02-23T09:35:15.090Z,38.52
2019-02-23T09:40:38.933Z,36.05
2019-02-23T09:46:03.030Z,35.56
2019-02-23T09:51:28.431Z,35.89
2019-02-23T09:56:53.889Z,34.29
2019-02-23T10:02:18.372Z,34.71
2019-02-23T10:07:43.080Z,32.31
2019-02-23T10:13:06.862Z,31.95
2019-02-23T10:18:52.997Z,30.89
2019-02-23T10:24:42.657Z,31.55
2019-02-23T10:30:10.860Z,29.31
2019-02-23T10:35:40.652Z,31.23
2019-02-23T10:41:07.896Z,31.22
2019-02-23T10:46:37.729Z,29.87
2019-02-23T10:52:28.071Z,30.04
2019-02-23T10:57:53.477Z,29.98
2019-02-23T11:03:18.005Z,29.93
2019-02-23T11:08:42.852Z,28.48
2019-02-23T11:14:07.739Z,27.91
2019-02-23T11:19:31.533Z,28.15
2019-02-23T11:24:56.085Z,28.89
2019-02-23T11:30:20.527Z,27.61
2019-02-23T11:35:45.687Z,25.08
2019-02-23T11:41:11.593Z,25.63
2019-02-23T11:46:36.092Z,26.07
2019-02-23T11:52:00.573Z,27.03
2019-02-23T11:57:25.141Z,28.07
2019-02-23T12:02:52.436Z,27.41
2019-02-23T12:08:15.154Z,28.33
2019-02-23T12:13:39.694Z,29.04
2019-02-23T12:19:03.638Z,28.39
2019-02-23T12:24:28.106Z,28.37
2019-02-23T12:29:52.824Z,27.88
2019-02-23T12:35:18.276Z,28.20
2019-02-23T12:40:42.794Z,26.07
2019-02-23T12:46:06.713Z,26.09
2019-02-23T12:51:30.936Z,27.37
2019-02-23T12:56:54.794Z,27.51
2019-02-23T13:02:19.534Z,27.46
2019-02-23T13:07:44.071Z,27.34
2019-02-23T13:13:37.454Z,27.72
2019-02-23T13:19:39.798Z,26.42
2019-02-23T13:25:35.075Z,27.49
2019-02-23T13:31:23.792Z,26.30
2019-02-23T13:37:23.488Z,25.55
2019-02-23T13:43:10.731Z,24.45
2019-02-23T13:49:09.144Z,25.67
2019-02-23T13:55:17.727Z,27.43
2019-02-23T14:01:17.979Z,27.53
2019-02-23T14:07:08.349Z,26.51
2019-02-23T14:12:41.709Z,24.13
2019-02-23T14:18:28.671Z,24.60
2019-02-23T14:24:10.413Z,24.88
2019-02-23T14:29:48.710Z,22.89
2019-02-23T14:35:46.218Z,23.54
2019-02-23T14:41:25.834Z,25.63
2019-02-23T14:47:25.680Z,26.88
2019-02-23T14:53:34.182Z,23.52
2019-02-23T14:59:13.484Z,23.56
2019-02-23T15:05:23.395Z,23.25
2019-02-23T15:11:10.420Z,25.32
2019-02-23T15:17:09.905Z,25.17
2019-02-23T15:22:52.313Z,25.37
2019-02-23T15:28:53.350Z,25.92
2019-02-23T15:34:55.483Z,27.75
2019-02-23T15:40:37.845Z,31.04
2019-02-23T15:46:32.386Z,31.46
2019-02-23T15:51:57.645Z,33.27
2019-02-23T16:02:58.014Z,35.77
2019-02-23T16:08:22.092Z,37.25
2019-02-23T16:13:46.622Z,38.91
2019-02-23T16:19:10.901Z,38.81
2019-02-23T16:24:35.650Z,40.17
2019-02-23T16:29:59.925Z,40.05
2019-02-23T16:35:24.869Z,41.44
2019-02-23T16:40:50.476Z,41.62
2019-02-23T16:46:15.178Z,42.46
2019-02-23T16:51:39.835Z,43.93
2019-02-23T16:57:04.951Z,44.28
2019-02-23T17:02:28.931Z,44.14
2019-02-23T17:07:52.919Z,44.70
2019-02-23T17:13:18.533Z,45.15
2019-02-23T17:18:43.756Z,45.83
2019-02-23T17:24:07.600Z,46.50
2019-02-23T17:29:31.289Z,46.65
2019-02-23T17:34:55.489Z,47.61
2019-02-23T17:40:19.636Z,47.80
2019-02-23T17:45:43.651Z,47.76
2019-02-23T17:51:08.402Z,48.39
2019-02-23T17:56:33.131Z,48.32
2019-02-23T18:01:56.947Z,49.32
2019-02-23T18:07:20.778Z,50.31
2019-02-23T18:12:45.455Z,51.62
2019-02-23T18:18:10.198Z,51.32
2019-02-23T18:23:33.811Z,52.03
2019-02-23T18:28:58.883Z,52.48
2019-02-23T18:34:23.383Z,53.53
2019-02-23T18:39:47.485Z,53.37
2019-02-23T18:45:13.179Z,51.79
2019-02-23T18:50:38.335Z,52.69
2019-02-23T18:56:03.997Z,52.97
2019-02-23T19:01:29.047Z,51.59
2019-02-23T19:06:53.594Z,52.26
2019-02-23T19:12:18.274Z,53.19
2019-02-23T19:17:42.007Z,53.20
2019-02-23T19:23:06.774Z,54.67
2019-02-23T19:28:31.139Z,54.76
2019-02-23T19:33:55.015Z,56.39
2019-02-23T19:39:18.987Z,57.30
2019-02-23T19:44:42.784Z,56.84
2019-02-23T19:50:10.794Z,57.17
2019-02-23T19:55:34.775Z,57.56
2019-02-23T20:00:59.103Z,57.86
2019-02-23T20:06:23.070Z,58.18
2019-02-23T20:11:48.161Z,60.72
2019-02-23T20:23:35.014Z,63.02
2019-02-23T20:28:58.766Z,61.98
2019-02-23T20:34:23.630Z,62.05
2019-02-23T20:39:48.197Z,60.90
2019-02-23T20:45:12.191Z,59.10
2019-02-23T20:50:37.139Z,61.83
2019-02-23T20:56:01.632Z,62.92
2019-02-23T21:01:26.143Z,65.19
2019-02-23T21:06:50.114Z,66.72
2019-02-23T21:12:14.820Z,66.51
2019-02-23T21:17:39.454Z,67.85
2019-02-23T21:23:04.319Z,67.15
2019-02-23T21:28:29.079Z,67.93
2019-02-23T21:33:53.935Z,69.82
2019-02-23T21:39:17.995Z,69.37
2019-02-23T21:44:41.749Z,69.27
2019-02-23T21:50:05.818Z,70.15
2019-02-23T21:55:29.568Z,69.85
2019-02-23T22:00:54.321Z,70.22
2019-02-23T22:06:19.553Z,70.36
2019-02-23T22:11:43.298Z,71.11
2019-02-23T22:17:08.234Z,73.58
2019-02-23T22:22:31.894Z,72.11
2019-02-23T22:27:55.632Z,71.73
2019-02-23T22:33:20.431Z,73.93
2019-02-23T22:38:45.357Z,72.87
2019-02-23T22:44:10.761Z,74.74
2019-02-23T22:49:35.291Z,75.68
2019-02-23T22:54:59.844Z,76.43
2019-02-23T23:00:28.244Z,74.18
2019-02-23T23:05:54.338Z,71.22
2019-02-23T23:11:19.840Z,70.73
2019-02-23T23:16:44.756Z,68.18
2019-02-23T23:22:09.328Z,67.16
2019-02-23T23:27:33.510Z,69.30
2019-02-23T23:32:57.127Z,68.96
2019-02-23T23:38:21.736Z,71.39
2019-02-23T23:43:45.785Z,71.30
2019-02-23T23:49:10.539Z,71.01
2019-02-23T23:54:34.603Z,72.63
2019-02-23T23:59:59.039Z,73.50
